createdAt,value
2016-08-31T00:00:32.631Z,24.64
2016-08-31T00:01:07.289Z,24.55
2016-08-31T00:01:41.618Z,24.59
2016-08-31T00:02:15.902Z,24.51
2016-08-31T00:02:50.200Z,24.46
2016-08-31T00:03:24.484Z,24.58
2016-08-31T00:03:58.824Z,24.55
2016-08-31T00:04:33.158Z,24.61
2016-08-31T00:05:07.460Z,24.46
2016-08-31T00:05:41.734Z,24.52
2016-08-31T00:06:16.042Z,24.46
2016-08-31T00:06:50.322Z,24.46
2016-08-31T00:07:24.595Z,24.59
2016-08-31T00:07:58.894Z,24.46
2016-08-31T00:08:33.193Z,24.45
2016-08-31T00:09:07.515Z,24.55
2016-08-31T00:09:41.798Z,24.45
2016-08-31T00:10:16.089Z,24.49
2016-08-31T00:10:50.378Z,24.51
2016-08-31T00:11:24.656Z,24.49
2016-08-31T00:11:58.940Z,24.52
2016-08-31T00:12:33.234Z,24.49
2016-08-31T00:13:07.540Z,24.52
2016-08-31T00:13:41.826Z,24.46
2016-08-31T00:14:16.112Z,24.46
2016-08-31T00:14:50.407Z,24.39
2016-08-31T00:15:24.692Z,24.4
2016-08-31T00:15:58.997Z,24.46
2016-08-31T00:16:33.302Z,24.46
2016-08-31T00:17:07.599Z,24.46
2016-08-31T00:17:41.888Z,24.45
2016-08-31T00:18:16.198Z,24.4
2016-08-31T00:18:50.515Z,24.44
2016-08-31T00:19:24.802Z,24.4
2016-08-31T00:19:59.086Z,24.42
2016-08-31T00:20:33.700Z,24.36
2016-08-31T00:21:07.978Z,24.45
2016-08-31T00:21:42.264Z,24.33
2016-08-31T00:22:16.549Z,24.37
2016-08-31T00:22:50.835Z,24.42
2016-08-31T00:23:25.111Z,24.3
2016-08-31T00:23:59.416Z,24.44
2016-08-31T00:24:33.718Z,24.39
2016-08-31T00:25:08.009Z,24.44
2016-08-31T00:25:42.297Z,24.32
2016-08-31T00:26:16.589Z,24.4
2016-08-31T00:26:50.885Z,24.36
2016-08-31T00:27:25.188Z,24.37
2016-08-31T00:27:59.476Z,24.37
2016-08-31T00:28:33.775Z,24.36
2016-08-31T00:29:08.057Z,24.33
2016-08-31T00:29:42.356Z,24.33
2016-08-31T00:30:16.651Z,24.34
2016-08-31T00:30:51.158Z,24.3
2016-08-31T00:31:25.420Z,24.3
2016-08-31T00:31:59.706Z,24.29
2016-08-31T00:32:33.992Z,24.22
2016-08-31T00:33:08.351Z,24.24
2016-08-31T00:33:42.642Z,24.27
2016-08-31T00:34:16.923Z,24.26
2016-08-31T00:34:51.204Z,24.27
2016-08-31T00:35:25.522Z,24.26
2016-08-31T00:35:59.809Z,24.26
2016-08-31T00:36:34.090Z,24.27
2016-08-31T00:37:08.370Z,24.22
2016-08-31T00:37:42.652Z,24.26
2016-08-31T00:38:16.934Z,24.29
2016-08-31T00:38:51.214Z,24.27
2016-08-31T00:39:25.498Z,24.19
2016-08-31T00:39:59.796Z,24.22
2016-08-31T00:40:34.076Z,24.26
2016-08-31T00:41:08.354Z,24.27
2016-08-31T00:41:42.657Z,24.27
2016-08-31T00:42:16.937Z,24.21
2016-08-31T00:42:51.212Z,24.26
2016-08-31T00:43:25.496Z,24.22
2016-08-31T00:43:59.778Z,24.26
2016-08-31T00:44:34.061Z,24.19
2016-08-31T00:45:08.341Z,24.18
2016-08-31T00:45:43.017Z,24.22
2016-08-31T00:46:17.304Z,24.12
2016-08-31T00:46:51.622Z,24.17
2016-08-31T00:47:25.909Z,24.32
2016-08-31T00:48:00.210Z,24.19
2016-08-31T00:48:34.501Z,24.22
2016-08-31T00:49:08.800Z,24.12
2016-08-31T00:49:43.087Z,24.26
2016-08-31T00:50:17.383Z,24.15
2016-08-31T00:50:51.911Z,24.24
2016-08-31T00:51:26.183Z,24.24
2016-08-31T00:52:00.556Z,24.24
2016-08-31T00:52:34.849Z,24.21
2016-08-31T00:53:09.144Z,24.15
2016-08-31T00:53:43.420Z,24.21
2016-08-31T00:54:17.706Z,24.17
2016-08-31T00:54:51.998Z,24.18
2016-08-31T00:55:26.277Z,24.21
2016-08-31T00:56:00.565Z,24.15
2016-08-31T00:56:34.856Z,24.15
2016-08-31T00:57:09.149Z,24.19
2016-08-31T00:57:43.446Z,24.14
2016-08-31T00:58:17.736Z,24.09
2016-08-31T00:58:52.023Z,24.08
2016-08-31T00:59:26.300Z,24.15
2016-08-31T01:00:00.596Z,24.07
2016-08-31T01:00:34.910Z,24.15
2016-08-31T01:01:09.201Z,24.14
2016-08-31T01:01:43.534Z,24.15
2016-08-31T01:02:17.811Z,24.14
2016-08-31T01:02:52.080Z,24.15
2016-08-31T01:03:26.387Z,24.08
2016-08-31T01:04:00.690Z,24.08
2016-08-31T01:04:34.976Z,24.04
2016-08-31T01:05:09.271Z,24.07
2016-08-31T01:05:43.561Z,24.09
2016-08-31T01:06:17.879Z,24.08
2016-08-31T01:06:52.162Z,24.11
2016-08-31T01:07:26.499Z,24.09
2016-08-31T01:08:00.804Z,24.12
2016-08-31T01:08:35.091Z,24.09
2016-08-31T01:09:09.391Z,24.11
2016-08-31T01:09:43.701Z,24.08
2016-08-31T01:10:17.996Z,24
2016-08-31T01:10:52.297Z,23.99
2016-08-31T01:11:26.580Z,24.02
2016-08-31T01:12:00.887Z,24.11
2016-08-31T01:12:35.170Z,24.08
2016-08-31T01:13:09.471Z,23.99
2016-08-31T01:13:43.768Z,23.97
2016-08-31T01:14:18.073Z,23.99
2016-08-31T01:14:52.371Z,23.99
2016-08-31T01:15:26.653Z,24.08
2016-08-31T01:16:00.984Z,23.99
2016-08-31T01:16:35.275Z,24
2016-08-31T01:17:09.555Z,24
2016-08-31T01:17:43.851Z,23.96
2016-08-31T01:18:18.132Z,24.02
2016-08-31T01:18:52.411Z,23.93
2016-08-31T01:19:26.685Z,23.92
2016-08-31T01:20:00.961Z,23.93
2016-08-31T01:20:35.551Z,23.96
2016-08-31T01:21:09.840Z,24.02
2016-08-31T01:21:44.124Z,23.93
2016-08-31T01:22:18.433Z,23.96
2016-08-31T01:22:52.735Z,23.94
2016-08-31T01:23:27.019Z,24.02
2016-08-31T01:24:01.299Z,23.99
2016-08-31T01:24:35.608Z,24.02
2016-08-31T01:25:09.901Z,23.96
2016-08-31T01:25:44.189Z,23.92
2016-08-31T01:26:18.472Z,23.96
2016-08-31T01:26:52.765Z,23.9
2016-08-31T01:27:27.094Z,24
2016-08-31T01:28:01.363Z,23.93
2016-08-31T01:28:35.656Z,23.93
2016-08-31T01:29:09.951Z,23.87
2016-08-31T01:29:44.234Z,23.9
2016-08-31T01:30:18.529Z,23.94
2016-08-31T01:30:52.823Z,23.9
2016-08-31T01:31:27.105Z,23.9
2016-08-31T01:32:01.412Z,23.94
2016-08-31T01:32:35.696Z,23.92
2016-08-31T01:33:09.984Z,23.93
2016-08-31T01:33:44.302Z,23.9
2016-08-31T01:34:18.606Z,23.96
2016-08-31T01:34:52.901Z,23.79
2016-08-31T01:35:27.196Z,23.96
2016-08-31T01:36:01.483Z,23.92
2016-08-31T01:36:35.772Z,23.87
2016-08-31T01:37:10.052Z,23.85
2016-08-31T01:37:44.335Z,23.84
2016-08-31T01:38:18.619Z,23.82
2016-08-31T01:38:52.901Z,23.85
2016-08-31T01:39:27.177Z,23.84
2016-08-31T01:40:01.479Z,23.82
2016-08-31T01:40:36.305Z,23.84
2016-08-31T01:41:10.596Z,23.81
2016-08-31T01:41:44.890Z,23.82
2016-08-31T01:42:19.183Z,23.82
2016-08-31T01:42:53.451Z,23.79
2016-08-31T01:43:27.722Z,23.79
2016-08-31T01:44:02.013Z,23.85
2016-08-31T01:44:36.302Z,23.77
2016-08-31T01:45:10.589Z,23.81
2016-08-31T01:45:44.868Z,23.77
2016-08-31T01:46:19.140Z,23.74
2016-08-31T01:46:53.421Z,23.75
2016-08-31T01:47:27.701Z,23.78
2016-08-31T01:48:01.981Z,23.74
2016-08-31T01:48:36.280Z,23.79
2016-08-31T01:49:10.564Z,23.79
2016-08-31T01:49:44.858Z,23.74
2016-08-31T01:50:19.164Z,23.77
2016-08-31T01:50:53.442Z,23.72
2016-08-31T01:51:27.727Z,23.7
2016-08-31T01:52:02.014Z,23.72
2016-08-31T01:52:36.287Z,23.77
2016-08-31T01:53:10.599Z,23.75
2016-08-31T01:53:44.912Z,23.67
2016-08-31T01:54:19.213Z,23.71
2016-08-31T01:54:53.500Z,23.7
2016-08-31T01:55:27.781Z,23.74
2016-08-31T01:56:02.071Z,23.71
2016-08-31T01:56:36.365Z,23.64
2016-08-31T01:57:10.650Z,23.71
2016-08-31T01:57:44.936Z,23.72
2016-08-31T01:58:19.212Z,23.72
2016-08-31T01:58:53.508Z,23.67
2016-08-31T01:59:27.794Z,23.72
2016-08-31T02:00:02.077Z,23.77
2016-08-31T02:00:36.350Z,23.63
2016-08-31T02:01:10.631Z,23.71
2016-08-31T02:01:44.921Z,23.64
2016-08-31T02:02:19.207Z,23.71
2016-08-31T02:02:53.500Z,23.67
2016-08-31T02:03:27.801Z,23.67
2016-08-31T02:04:02.106Z,23.64
2016-08-31T02:04:36.381Z,23.64
2016-08-31T02:05:10.651Z,23.6
2016-08-31T02:05:45.004Z,23.66
2016-08-31T02:06:19.302Z,23.62
2016-08-31T02:06:53.566Z,23.59
2016-08-31T02:07:27.862Z,23.59
2016-08-31T02:08:02.197Z,23.63
2016-08-31T02:08:36.487Z,23.59
2016-08-31T02:09:10.773Z,23.59
2016-08-31T02:09:45.062Z,23.57
2016-08-31T02:10:19.349Z,23.59
2016-08-31T02:10:53.634Z,23.62
2016-08-31T02:11:27.911Z,23.56
2016-08-31T02:12:02.204Z,23.66
2016-08-31T02:12:36.489Z,23.64
2016-08-31T02:13:10.782Z,23.53
2016-08-31T02:13:45.064Z,23.59
2016-08-31T02:14:19.354Z,23.55
2016-08-31T02:14:53.647Z,23.53
2016-08-31T02:15:27.939Z,23.6
2016-08-31T02:16:02.237Z,23.57
2016-08-31T02:16:36.520Z,23.56
2016-08-31T02:17:10.807Z,23.56
2016-08-31T02:17:45.086Z,23.53
2016-08-31T02:18:19.366Z,23.59
2016-08-31T02:18:53.656Z,23.53
2016-08-31T02:19:27.950Z,23.5
2016-08-31T02:20:02.248Z,23.57
2016-08-31T02:20:36.823Z,23.59
2016-08-31T02:21:11.099Z,23.53
2016-08-31T02:21:45.391Z,23.6
2016-08-31T02:22:19.710Z,23.48
2016-08-31T02:22:53.993Z,23.62
2016-08-31T02:23:28.272Z,23.57
2016-08-31T02:24:02.561Z,23.47
2016-08-31T02:24:36.843Z,23.44
2016-08-31T02:25:11.131Z,23.48
2016-08-31T02:25:45.451Z,23.48
2016-08-31T02:26:19.763Z,23.42
2016-08-31T02:26:54.049Z,23.44
2016-08-31T02:27:28.364Z,23.45
2016-08-31T02:28:02.657Z,23.44
2016-08-31T02:28:36.952Z,23.53
2016-08-31T02:29:11.242Z,23.45
2016-08-31T02:29:45.535Z,23.52
2016-08-31T02:30:19.839Z,23.44
2016-08-31T02:30:54.120Z,23.42
2016-08-31T02:31:28.412Z,23.41
2016-08-31T02:32:02.702Z,23.45
2016-08-31T02:32:36.981Z,23.45
2016-08-31T02:33:11.257Z,23.35
2016-08-31T02:33:45.543Z,23.38
2016-08-31T02:34:19.822Z,23.4
2016-08-31T02:34:54.114Z,23.38
2016-08-31T02:35:28.416Z,23.4
2016-08-31T02:36:02.716Z,23.35
2016-08-31T02:36:36.995Z,23.41
2016-08-31T02:37:11.262Z,23.38
2016-08-31T02:37:45.560Z,23.41
2016-08-31T02:38:19.853Z,23.41
2016-08-31T02:38:54.148Z,23.42
2016-08-31T02:39:28.453Z,23.41
2016-08-31T02:40:02.727Z,23.4
2016-08-31T02:40:37.015Z,23.4
2016-08-31T02:41:11.297Z,23.42
2016-08-31T02:41:45.577Z,23.38
2016-08-31T02:42:19.907Z,23.37
2016-08-31T02:42:54.201Z,23.42
2016-08-31T02:43:28.494Z,23.4
2016-08-31T02:44:02.793Z,23.41
2016-08-31T02:44:37.080Z,23.37
2016-08-31T02:45:11.353Z,23.41
2016-08-31T02:45:45.630Z,23.44
2016-08-31T02:46:19.912Z,23.37
2016-08-31T02:46:54.190Z,23.38
2016-08-31T02:47:28.496Z,23.38
2016-08-31T02:48:02.783Z,23.38
2016-08-31T02:48:37.048Z,23.32
2016-08-31T02:49:11.320Z,23.38
2016-08-31T02:49:45.802Z,23.32
2016-08-31T02:50:20.110Z,23.29
2016-08-31T02:50:54.653Z,23.26
2016-08-31T02:51:28.944Z,23.38
2016-08-31T02:52:03.221Z,23.38
2016-08-31T02:52:37.522Z,23.37
2016-08-31T02:53:11.799Z,23.28
2016-08-31T02:53:46.104Z,23.28
2016-08-31T02:54:20.383Z,23.29
2016-08-31T02:54:54.643Z,23.26
2016-08-31T02:55:28.954Z,23.41
2016-08-31T02:56:03.249Z,23.25
2016-08-31T02:56:37.544Z,23.25
2016-08-31T02:57:11.834Z,23.25
2016-08-31T02:57:46.117Z,23.26
2016-08-31T02:58:20.397Z,23.28
2016-08-31T02:58:54.690Z,23.29
2016-08-31T02:59:28.968Z,23.28
2016-08-31T03:00:03.254Z,23.21
2016-08-31T03:00:37.592Z,23.21
2016-08-31T03:01:11.912Z,23.22
2016-08-31T03:01:46.201Z,23.24
2016-08-31T03:02:20.490Z,23.29
2016-08-31T03:02:54.758Z,23.29
2016-08-31T03:03:29.057Z,23.21
2016-08-31T03:04:03.350Z,23.26
2016-08-31T03:04:37.638Z,23.24
2016-08-31T03:05:11.928Z,23.22
2016-08-31T03:05:46.206Z,23.29
2016-08-31T03:06:20.496Z,23.19
2016-08-31T03:06:54.775Z,23.19
2016-08-31T03:07:29.089Z,23.25
2016-08-31T03:08:03.377Z,23.25
2016-08-31T03:08:37.670Z,23.22
2016-08-31T03:09:11.955Z,23.24
2016-08-31T03:09:46.243Z,23.24
2016-08-31T03:10:20.527Z,23.19
2016-08-31T03:10:54.823Z,23.19
2016-08-31T03:11:29.115Z,23.14
2016-08-31T03:12:03.411Z,23.15
2016-08-31T03:12:37.701Z,23.16
2016-08-31T03:13:11.989Z,23.21
2016-08-31T03:13:46.277Z,23.19
2016-08-31T03:14:20.570Z,23.14
2016-08-31T03:14:54.862Z,23.14
2016-08-31T03:15:29.158Z,23.16
2016-08-31T03:16:03.438Z,23.16
2016-08-31T03:16:37.727Z,23.07
2016-08-31T03:17:12.027Z,23.21
2016-08-31T03:17:46.340Z,23.06
2016-08-31T03:18:20.616Z,23.18
2016-08-31T03:18:54.895Z,23.15
2016-08-31T03:19:29.174Z,23.07
2016-08-31T03:20:04.003Z,23.1
2016-08-31T03:20:38.299Z,23.09
2016-08-31T03:21:12.590Z,23.1
2016-08-31T03:21:46.864Z,23.21
2016-08-31T03:22:21.148Z,23.15
2016-08-31T03:22:55.449Z,23.07
2016-08-31T03:23:29.751Z,23.1
2016-08-31T03:24:04.040Z,23.1
2016-08-31T03:24:38.342Z,23.19
2016-08-31T03:25:12.672Z,23.03
2016-08-31T03:25:47.267Z,23.07
2016-08-31T03:26:21.545Z,23.07
2016-08-31T03:26:55.832Z,23.14
2016-08-31T03:27:30.117Z,23.06
2016-08-31T03:28:04.406Z,23.1
2016-08-31T03:28:38.706Z,23.09
2016-08-31T03:29:12.992Z,23.09
2016-08-31T03:29:47.278Z,23.09
2016-08-31T03:30:21.575Z,23.07
2016-08-31T03:30:55.870Z,23.16
2016-08-31T03:31:30.151Z,23.07
2016-08-31T03:32:04.439Z,23.01
2016-08-31T03:32:38.749Z,23.09
2016-08-31T03:33:13.088Z,23.07
2016-08-31T03:33:47.375Z,23.04
2016-08-31T03:34:21.667Z,23.06
2016-08-31T03:34:55.946Z,23.1
2016-08-31T03:35:30.213Z,23.04
2016-08-31T03:36:04.526Z,23.09
2016-08-31T03:36:38.818Z,23.07
2016-08-31T03:37:13.102Z,23.03
2016-08-31T03:37:47.404Z,23.09
2016-08-31T03:38:21.686Z,23.04
2016-08-31T03:38:55.978Z,23.06
2016-08-31T03:39:30.270Z,23.06
2016-08-31T03:40:04.534Z,23.01
2016-08-31T03:40:39.265Z,23
2016-08-31T03:41:13.563Z,23.07
2016-08-31T03:41:47.843Z,23.06
2016-08-31T03:42:22.132Z,23.01
2016-08-31T03:42:56.454Z,23.06
2016-08-31T03:43:30.748Z,23.04
2016-08-31T03:44:05.042Z,23.07
2016-08-31T03:44:39.344Z,23.04
2016-08-31T03:45:13.613Z,23.07
2016-08-31T03:45:47.905Z,23
2016-08-31T03:46:22.191Z,22.99
2016-08-31T03:46:56.482Z,23.03
2016-08-31T03:47:30.771Z,23.03
2016-08-31T03:48:05.060Z,22.96
2016-08-31T03:48:39.356Z,23.03
2016-08-31T03:49:13.666Z,23.01
2016-08-31T03:49:47.966Z,23
2016-08-31T03:50:22.255Z,23
2016-08-31T03:50:56.550Z,22.94
2016-08-31T03:51:30.855Z,23.06
2016-08-31T03:52:05.143Z,23.03
2016-08-31T03:52:39.434Z,23.04
2016-08-31T03:53:13.730Z,22.91
2016-08-31T03:53:48.026Z,22.89
2016-08-31T03:54:22.321Z,22.96
2016-08-31T03:54:56.622Z,22.94
2016-08-31T03:55:30.912Z,22.94
2016-08-31T03:56:05.199Z,22.94
2016-08-31T03:56:39.487Z,22.96
2016-08-31T03:57:13.781Z,22.96
2016-08-31T03:57:48.056Z,22.94
2016-08-31T03:58:22.329Z,22.94
2016-08-31T03:58:56.631Z,22.88
2016-08-31T03:59:30.925Z,22.97
2016-08-31T04:00:05.199Z,22.91
2016-08-31T04:00:39.486Z,22.97
2016-08-31T04:01:13.781Z,22.94
2016-08-31T04:01:48.091Z,22.88
2016-08-31T04:02:22.390Z,22.91
2016-08-31T04:02:56.671Z,22.99
2016-08-31T04:03:30.990Z,22.86
2016-08-31T04:04:05.254Z,22.94
2016-08-31T04:04:39.544Z,22.99
2016-08-31T04:05:13.832Z,22.88
2016-08-31T04:05:48.135Z,22.92
2016-08-31T04:06:22.420Z,22.92
2016-08-31T04:06:56.708Z,22.85
2016-08-31T04:07:31.012Z,22.92
2016-08-31T04:08:05.310Z,22.92
2016-08-31T04:08:39.601Z,22.88
2016-08-31T04:09:13.883Z,22.82
2016-08-31T04:09:48.176Z,22.89
2016-08-31T04:10:22.465Z,22.92
2016-08-31T04:10:56.745Z,22.81
2016-08-31T04:11:31.038Z,22.86
2016-08-31T04:12:05.336Z,22.85
2016-08-31T04:12:39.626Z,22.88
2016-08-31T04:13:13.910Z,22.89
2016-08-31T04:13:48.200Z,22.79
2016-08-31T04:14:22.476Z,22.89
2016-08-31T04:14:56.797Z,22.89
2016-08-31T04:15:31.081Z,22.84
2016-08-31T04:16:05.378Z,22.84
2016-08-31T04:16:39.681Z,22.86
2016-08-31T04:17:13.967Z,22.84
2016-08-31T04:17:48.252Z,22.82
2016-08-31T04:18:22.543Z,22.82
2016-08-31T04:18:56.851Z,22.82
2016-08-31T04:19:31.165Z,22.79
2016-08-31T04:20:05.448Z,22.84
2016-08-31T04:20:40.201Z,22.75
2016-08-31T04:21:14.481Z,22.85
2016-08-31T04:21:48.775Z,22.79
2016-08-31T04:22:23.067Z,22.84
2016-08-31T04:22:57.350Z,22.82
2016-08-31T04:23:31.635Z,22.81
2016-08-31T04:24:05.924Z,22.78
2016-08-31T04:24:40.192Z,22.79
2016-08-31T04:25:14.464Z,22.79
2016-08-31T04:25:48.829Z,22.84
2016-08-31T04:26:23.116Z,22.75
2016-08-31T04:26:57.407Z,22.82
2016-08-31T04:27:31.671Z,22.82
2016-08-31T04:28:05.950Z,22.76
2016-08-31T04:28:40.261Z,22.78
2016-08-31T04:29:14.554Z,22.79
2016-08-31T04:29:48.854Z,22.81
2016-08-31T04:30:23.136Z,22.78
2016-08-31T04:30:57.422Z,22.81
2016-08-31T04:31:31.702Z,22.84
2016-08-31T04:32:06.014Z,22.84
2016-08-31T04:32:40.286Z,22.85
2016-08-31T04:33:14.569Z,22.73
2016-08-31T04:33:48.851Z,22.82
2016-08-31T04:34:23.150Z,22.75
2016-08-31T04:34:57.462Z,22.7
2016-08-31T04:35:31.749Z,22.85
2016-08-31T04:36:06.047Z,22.78
2016-08-31T04:36:40.324Z,22.82
2016-08-31T04:37:14.597Z,22.81
2016-08-31T04:37:48.900Z,22.79
2016-08-31T04:38:23.181Z,22.79
2016-08-31T04:38:57.470Z,22.76
2016-08-31T04:39:31.762Z,22.7
2016-08-31T04:40:06.059Z,22.71
2016-08-31T04:40:40.350Z,22.76
2016-08-31T04:41:14.632Z,22.7
2016-08-31T04:41:48.919Z,22.76
2016-08-31T04:42:23.217Z,22.75
2016-08-31T04:42:57.500Z,22.71
2016-08-31T04:43:31.794Z,22.73
2016-08-31T04:44:06.105Z,22.7
2016-08-31T04:44:40.384Z,22.67
2016-08-31T04:45:14.671Z,22.73
2016-08-31T04:45:48.951Z,22.71
2016-08-31T04:46:23.228Z,22.71
2016-08-31T04:46:57.536Z,22.73
2016-08-31T04:47:31.826Z,22.67
2016-08-31T04:48:06.133Z,22.75
2016-08-31T04:48:40.419Z,22.67
2016-08-31T04:49:14.713Z,22.7
2016-08-31T04:49:49.009Z,22.7
2016-08-31T04:50:23.277Z,22.69
2016-08-31T04:50:57.568Z,22.75
2016-08-31T04:51:31.856Z,22.61
2016-08-31T04:52:06.139Z,22.66
2016-08-31T04:52:40.427Z,22.69
2016-08-31T04:53:14.707Z,22.67
2016-08-31T04:53:48.985Z,22.66
2016-08-31T04:54:23.305Z,22.66
2016-08-31T04:54:57.578Z,22.61
2016-08-31T04:55:31.864Z,22.63
2016-08-31T04:56:06.157Z,22.66
2016-08-31T04:56:40.459Z,22.63
2016-08-31T04:57:14.736Z,22.57
2016-08-31T04:57:49.004Z,22.59
2016-08-31T04:58:23.289Z,22.57
2016-08-31T04:58:57.572Z,22.59
2016-08-31T04:59:31.848Z,22.61
2016-08-31T05:00:06.161Z,22.59
2016-08-31T05:00:41.291Z,22.66
2016-08-31T05:01:15.613Z,22.61
2016-08-31T05:01:49.917Z,22.61
2016-08-31T05:02:24.222Z,22.61
2016-08-31T05:02:58.495Z,22.61
2016-08-31T05:03:32.765Z,22.66
2016-08-31T05:04:07.050Z,22.63
2016-08-31T05:04:41.335Z,22.61
2016-08-31T05:05:15.639Z,22.57
2016-08-31T05:05:49.929Z,22.61
2016-08-31T05:06:24.215Z,22.63
2016-08-31T05:06:58.515Z,22.63
2016-08-31T05:07:32.795Z,22.59
2016-08-31T05:08:07.088Z,22.61
2016-08-31T05:08:41.375Z,22.59
2016-08-31T05:09:15.674Z,22.57
2016-08-31T05:09:49.965Z,22.59
2016-08-31T05:10:24.257Z,22.63
2016-08-31T05:10:58.541Z,22.59
2016-08-31T05:11:32.831Z,22.61
2016-08-31T05:12:07.118Z,22.6
2016-08-31T05:12:41.416Z,22.66
2016-08-31T05:13:15.694Z,22.66
2016-08-31T05:13:49.975Z,22.6
2016-08-31T05:14:24.283Z,22.61
2016-08-31T05:14:58.589Z,22.57
2016-08-31T05:15:33.086Z,22.6
2016-08-31T05:16:07.370Z,22.64
2016-08-31T05:16:41.670Z,22.52
2016-08-31T05:17:15.950Z,22.6
2016-08-31T05:17:50.220Z,22.61
2016-08-31T05:18:24.505Z,22.61
2016-08-31T05:18:58.790Z,22.57
2016-08-31T05:19:33.072Z,22.59
2016-08-31T05:20:07.367Z,22.61
2016-08-31T05:20:41.665Z,22.55
2016-08-31T05:21:15.954Z,22.54
2016-08-31T05:21:51.772Z,22.61
2016-08-31T05:22:26.078Z,22.46
2016-08-31T05:23:00.378Z,22.55
2016-08-31T05:23:34.683Z,22.55
2016-08-31T05:24:08.971Z,22.57
2016-08-31T05:24:43.251Z,22.55
2016-08-31T05:25:17.525Z,22.48
2016-08-31T05:25:51.808Z,22.59
2016-08-31T05:26:26.103Z,22.61
2016-08-31T05:27:00.388Z,22.63
2016-08-31T05:27:34.680Z,22.54
2016-08-31T05:28:08.967Z,22.55
2016-08-31T05:28:43.257Z,22.52
2016-08-31T05:29:17.539Z,22.6
2016-08-31T05:34:38.433Z,22.7
2016-08-31T05:35:12.744Z,22.69
2016-08-31T05:35:47.143Z,22.7
2016-08-31T05:36:22.275Z,22.69
2016-08-31T05:36:56.597Z,22.71
2016-08-31T05:37:30.905Z,22.67
2016-08-31T05:38:05.189Z,22.75
2016-08-31T05:38:39.475Z,22.7
2016-08-31T05:39:13.774Z,22.75
2016-08-31T05:39:49.863Z,22.67
2016-08-31T05:40:24.797Z,22.71
2016-08-31T05:40:59.358Z,22.67
2016-08-31T05:41:34.237Z,22.71
2016-08-31T05:42:08.562Z,22.71
2016-08-31T05:42:42.854Z,22.73
2016-08-31T05:43:17.164Z,22.64
2016-08-31T05:43:52.819Z,22.73
2016-08-31T05:44:27.117Z,22.64
2016-08-31T05:45:01.411Z,22.64
2016-08-31T05:45:36.660Z,22.61
2016-08-31T05:46:10.950Z,22.57
2016-08-31T05:46:45.257Z,22.6
2016-08-31T05:47:19.681Z,22.61
2016-08-31T05:47:54.953Z,22.57
2016-08-31T05:48:30.204Z,22.66
2016-08-31T05:49:05.196Z,22.63
2016-08-31T05:49:40.782Z,22.63
2016-08-31T05:50:16.261Z,22.61
2016-08-31T05:50:51.314Z,22.59
2016-08-31T05:51:26.805Z,22.61
2016-08-31T05:52:02.126Z,22.61
2016-08-31T05:52:37.591Z,22.67
2016-08-31T05:53:12.939Z,22.64
2016-08-31T05:53:48.363Z,22.57
2016-08-31T05:54:23.874Z,22.66
2016-08-31T05:54:59.331Z,22.59
2016-08-31T05:55:34.603Z,22.63
2016-08-31T05:56:09.725Z,22.61
2016-08-31T05:56:44.530Z,22.59
2016-08-31T05:57:20.042Z,22.64
2016-08-31T05:57:55.357Z,22.59
2016-08-31T05:58:31.104Z,22.63
2016-08-31T05:59:05.788Z,22.59
2016-08-31T05:59:41.769Z,22.61
2016-08-31T06:00:17.760Z,22.61
2016-08-31T06:00:54.732Z,22.7
2016-08-31T06:01:29.354Z,22.76
2016-08-31T06:02:03.900Z,22.69
2016-08-31T06:02:38.200Z,22.7
2016-08-31T06:03:12.482Z,22.78
2016-08-31T06:03:46.765Z,22.78
2016-08-31T06:04:21.096Z,22.82
2016-08-31T06:04:56.732Z,22.81
2016-08-31T06:05:31.030Z,22.84
2016-08-31T06:06:05.321Z,22.79
2016-08-31T06:06:39.962Z,22.79
2016-08-31T06:07:14.265Z,22.78
2016-08-31T06:07:48.633Z,22.79
2016-08-31T06:08:22.935Z,22.85
2016-08-31T06:08:57.246Z,22.82
2016-08-31T06:09:32.739Z,22.84
2016-08-31T06:10:07.281Z,22.85
2016-08-31T06:10:43.625Z,22.91
2016-08-31T06:11:17.920Z,22.89
2016-08-31T06:11:52.226Z,22.99
2016-08-31T06:12:26.510Z,22.97
2016-08-31T06:13:00.809Z,22.94
2016-08-31T06:13:35.099Z,23
2016-08-31T06:14:10.363Z,23
2016-08-31T06:14:45.495Z,23.03
2016-08-31T06:15:21.143Z,23.01
2016-08-31T06:15:55.751Z,23.04
2016-08-31T06:16:30.114Z,23.07
2016-08-31T06:17:04.415Z,23.1
2016-08-31T06:17:38.699Z,23.12
2016-08-31T06:18:14.732Z,23.09
2016-08-31T06:18:49.006Z,23.04
2016-08-31T06:19:23.290Z,23.07
2016-08-31T06:19:58.278Z,23.09
2016-08-31T06:20:32.793Z,23.04
2016-08-31T06:21:07.074Z,23.14
2016-08-31T06:21:41.363Z,23.07
2016-08-31T06:22:15.754Z,23.22
2016-08-31T06:22:50.053Z,23.19
2016-08-31T06:23:24.404Z,23.25
2016-08-31T06:23:58.699Z,23.25
2016-08-31T06:24:33.013Z,23.22
2016-08-31T06:25:07.333Z,23.26
2016-08-31T06:25:41.628Z,23.29
2016-08-31T06:26:17.429Z,23.25
2016-08-31T06:26:51.720Z,23.38
2016-08-31T06:27:26.017Z,23.4
2016-08-31T06:28:00.305Z,23.38
2016-08-31T06:28:35.281Z,23.45
2016-08-31T06:29:09.990Z,23.44
2016-08-31T06:29:45.048Z,23.37
2016-08-31T06:30:19.618Z,23.52
2016-08-31T06:30:55.212Z,23.45
2016-08-31T06:31:29.971Z,23.5
2016-08-31T06:32:04.277Z,23.52
2016-08-31T06:32:38.561Z,23.52
2016-08-31T06:33:12.867Z,23.53
2016-08-31T06:33:47.352Z,23.62
2016-08-31T06:34:22.287Z,23.62
2016-08-31T06:34:57.240Z,23.59
2016-08-31T06:35:32.432Z,23.63
2016-08-31T06:36:08.286Z,23.6
2016-08-31T06:36:42.664Z,23.72
2016-08-31T06:37:18.171Z,23.71
2016-08-31T06:37:54.778Z,23.72
2016-08-31T06:38:32.280Z,23.74
2016-08-31T06:39:08.730Z,23.77
2016-08-31T06:39:44.387Z,23.77
2016-08-31T06:40:22.250Z,23.84
2016-08-31T06:40:57.328Z,23.84
2016-08-31T06:41:33.287Z,23.87
2016-08-31T06:42:08.913Z,23.93
2016-08-31T06:42:45.435Z,23.9
2016-08-31T06:43:21.321Z,23.89
2016-08-31T06:43:56.884Z,23.97
2016-08-31T06:44:31.185Z,24
2016-08-31T06:45:06.931Z,23.94
2016-08-31T06:45:42.454Z,24.03
2016-08-31T06:46:17.007Z,24.07
2016-08-31T06:46:52.435Z,24.08
2016-08-31T06:47:26.876Z,24.08
2016-08-31T06:48:01.321Z,24.12
2016-08-31T06:48:36.472Z,24.15
2016-08-31T06:49:10.766Z,24.21
2016-08-31T06:49:45.159Z,24.08
2016-08-31T06:50:19.546Z,24.21
2016-08-31T06:50:53.944Z,24.21
2016-08-31T06:51:28.305Z,24.27
2016-08-31T06:52:02.636Z,24.15
2016-08-31T06:52:37.661Z,24.24
2016-08-31T06:53:12.050Z,24.22
2016-08-31T06:53:46.344Z,24.26
2016-08-31T06:54:20.655Z,24.32
2016-08-31T06:54:55.731Z,24.33
2016-08-31T06:55:30.019Z,24.32
2016-08-31T06:56:04.399Z,24.39
2016-08-31T06:56:39.923Z,24.36
2016-08-31T06:57:15.303Z,24.4
2016-08-31T06:57:50.905Z,24.42
2016-08-31T06:58:25.398Z,24.42
2016-08-31T06:59:01.611Z,24.44
2016-08-31T06:59:39.049Z,24.55
2016-08-31T07:00:16.319Z,24.42
2016-08-31T07:00:53.776Z,24.56
2016-08-31T07:01:30.159Z,24.59
2016-08-31T07:02:05.319Z,24.56
2016-08-31T07:02:43.416Z,24.61
2016-08-31T07:03:20.177Z,24.58
2016-08-31T07:03:59.314Z,24.61
2016-08-31T07:04:39.765Z,24.63
2016-08-31T07:05:15.294Z,24.75
2016-08-31T07:05:50.851Z,24.7
2016-08-31T07:06:28.329Z,24.66
2016-08-31T07:07:05.421Z,24.74
2016-08-31T07:07:41.662Z,24.8
2016-08-31T07:08:16.908Z,24.77
2016-08-31T07:08:54.969Z,24.78
2016-08-31T07:09:30.595Z,24.74
2016-08-31T07:10:06.290Z,24.85
2016-08-31T07:10:41.060Z,24.87
2016-08-31T07:11:15.410Z,24.92
2016-08-31T07:11:49.840Z,24.93
2016-08-31T07:12:26.203Z,24.9
2016-08-31T07:13:01.783Z,24.97
2016-08-31T07:13:39.833Z,24.97
2016-08-31T07:14:18.868Z,25.04
2016-08-31T07:15:01.901Z,25.02
2016-08-31T07:15:42.721Z,25.09
2016-08-31T07:16:17.011Z,25.04
2016-08-31T07:16:52.337Z,25.01
2016-08-31T07:17:28.814Z,25
2016-08-31T07:18:03.762Z,25.04
2016-08-31T07:18:39.528Z,25.11
2016-08-31T07:19:13.821Z,25.11
2016-08-31T07:19:48.149Z,25.14
2016-08-31T07:20:22.473Z,25.19
2016-08-31T07:20:56.807Z,25.19
2016-08-31T07:21:31.142Z,25.24
2016-08-31T07:22:07.005Z,25.3
2016-08-31T07:22:41.418Z,25.23
2016-08-31T07:23:15.715Z,25.3
2016-08-31T07:23:50.058Z,25.22
2016-08-31T07:24:24.352Z,25.26
2016-08-31T07:24:58.662Z,25.23
2016-08-31T07:25:32.943Z,25.34
2016-08-31T07:26:10.357Z,25.38
2016-08-31T07:26:45.752Z,25.37
2016-08-31T07:27:21.819Z,25.37
2016-08-31T07:27:58.310Z,25.37
2016-08-31T07:28:35.669Z,25.44
2016-08-31T07:29:10.908Z,25.47
2016-08-31T07:29:45.218Z,25.37
2016-08-31T07:30:19.499Z,25.45
2016-08-31T07:30:53.915Z,25.47
2016-08-31T07:31:28.197Z,25.54